createdAt,value
2022-11-25T00:00:42.096Z,5.30
2022-11-25T00:01:42.175Z,5.32
2022-11-25T00:02:42.222Z,5.25
2022-11-25T00:03:42.059Z,5.35
2022-11-25T00:04:42.039Z,5.29
2022-11-25T00:05:42.034Z,5.26
2022-11-25T00:06:42.018Z,5.28
2022-11-25T00:07:42.068Z,5.21
2022-11-25T00:08:42.054Z,5.23
2022-11-25T00:09:41.990Z,5.28
2022-11-25T00:10:41.999Z,5.26
2022-11-25T00:11:42.006Z,5.21
2022-11-25T00:12:41.956Z,5.20
2022-11-25T00:13:41.949Z,5.23
2022-11-25T00:14:41.962Z,5.23
2022-11-25T00:15:41.953Z,5.30
2022-11-25T00:16:46.774Z,5.28
2022-11-25T00:17:42.911Z,5.28
2022-11-25T00:18:41.912Z,5.26
2022-11-25T00:19:41.880Z,5.25
2022-11-25T00:20:41.893Z,5.28
2022-11-25T00:21:41.861Z,5.26
2022-11-25T00:22:41.844Z,5.25
2022-11-25T00:23:41.851Z,5.35
2022-11-25T00:24:41.827Z,5.26
2022-11-25T00:25:41.811Z,5.26
2022-11-25T00:26:41.863Z,5.25
2022-11-25T00:27:41.790Z,5.18
2022-11-25T00:28:41.781Z,5.15
2022-11-25T00:29:41.771Z,5.25
2022-11-25T00:30:41.771Z,5.18
2022-11-25T00:31:41.880Z,5.17
2022-11-25T00:32:41.791Z,5.21
2022-11-25T00:33:41.725Z,5.17
2022-11-25T00:34:41.717Z,5.15
2022-11-25T00:35:41.700Z,5.18
2022-11-25T00:36:41.697Z,5.15
2022-11-25T00:37:41.679Z,5.14
2022-11-25T00:38:41.719Z,5.14
2022-11-25T00:39:41.658Z,5.08
2022-11-25T00:40:41.652Z,5.21
2022-11-25T00:41:41.643Z,5.15
2022-11-25T00:42:41.657Z,5.23
2022-11-25T00:43:41.613Z,5.18
2022-11-25T00:44:42.377Z,5.18
2022-11-25T00:45:41.661Z,5.18
2022-11-25T00:46:41.573Z,5.18
2022-11-25T00:47:41.574Z,5.23
2022-11-25T00:48:41.562Z,5.21
2022-11-25T00:49:41.543Z,5.17
2022-11-25T00:50:41.618Z,5.25
2022-11-25T00:51:41.519Z,5.18
2022-11-25T00:52:41.515Z,5.18
2022-11-25T00:53:41.508Z,5.17
2022-11-25T00:54:41.490Z,5.26
2022-11-25T00:55:48.700Z,5.17
2022-11-25T00:56:48.457Z,5.23
2022-11-25T00:57:49.277Z,5.17
2022-11-25T00:58:49.299Z,5.18
2022-11-25T00:59:48.427Z,5.25
2022-11-25T01:00:49.410Z,5.11
2022-11-25T01:01:41.438Z,5.15
2022-11-25T01:02:41.459Z,5.10
2022-11-25T01:03:41.408Z,5.00
2022-11-25T01:04:41.397Z,5.04
2022-11-25T01:05:41.367Z,5.02
2022-11-25T01:06:41.360Z,4.99
2022-11-25T01:07:41.441Z,5.12
2022-11-25T01:08:41.332Z,5.14
2022-11-25T01:09:41.337Z,5.08
2022-11-25T01:10:41.308Z,5.07
2022-11-25T01:11:41.302Z,5.00
2022-11-25T01:12:41.325Z,5.17
2022-11-25T01:13:41.331Z,5.05
2022-11-25T01:14:41.276Z,5.11
2022-11-25T01:15:41.256Z,5.07
2022-11-25T01:16:41.301Z,5.12
2022-11-25T01:17:41.238Z,5.05
2022-11-25T01:18:41.220Z,5.07
2022-11-25T01:19:41.248Z,5.14
2022-11-25T01:20:41.210Z,5.17
2022-11-25T01:21:41.183Z,5.21
2022-11-25T01:22:41.180Z,5.18
2022-11-25T01:23:41.180Z,5.15
2022-11-25T01:24:41.156Z,5.20
2022-11-25T01:25:41.176Z,5.20
2022-11-25T01:26:41.141Z,5.18
2022-11-25T01:27:41.125Z,5.18
2022-11-25T01:28:41.122Z,5.18
2022-11-25T01:29:41.125Z,5.23
2022-11-25T01:30:41.458Z,5.20
2022-11-25T01:31:41.177Z,5.21
2022-11-25T01:32:41.069Z,5.18
2022-11-25T01:33:41.066Z,5.25
2022-11-25T01:34:41.069Z,5.29
2022-11-25T01:35:41.039Z,5.29
2022-11-25T01:36:41.030Z,5.25
2022-11-25T01:37:41.045Z,5.29
2022-11-25T01:38:41.002Z,5.30
2022-11-25T01:39:40.996Z,5.32
2022-11-25T01:40:40.979Z,5.25
2022-11-25T01:41:40.971Z,5.25
2022-11-25T01:42:40.965Z,5.29
2022-11-25T01:43:40.976Z,5.23
2022-11-25T01:44:40.970Z,5.30
2022-11-25T01:45:41.015Z,5.28
2022-11-25T01:46:40.914Z,5.28
2022-11-25T01:47:40.909Z,5.28
2022-11-25T01:48:40.896Z,5.33
2022-11-25T01:49:40.969Z,5.26
2022-11-25T01:50:40.877Z,5.26
2022-11-25T01:51:40.871Z,5.25
2022-11-25T01:52:40.851Z,5.28
2022-11-25T01:53:40.842Z,5.29
2022-11-25T01:54:40.828Z,5.26
2022-11-25T01:55:40.898Z,5.28
2022-11-25T01:56:40.809Z,5.33
2022-11-25T01:57:40.801Z,5.39
2022-11-25T01:58:40.792Z,5.32
2022-11-25T01:59:40.784Z,5.29
2022-11-25T02:00:40.767Z,5.29
2022-11-25T02:01:40.904Z,5.32
2022-11-25T02:02:40.839Z,5.28
2022-11-25T02:03:40.735Z,5.29
2022-11-25T02:04:40.719Z,5.33
2022-11-25T02:05:40.707Z,5.26
2022-11-25T02:06:40.700Z,5.29
2022-11-25T02:07:40.947Z,5.23
2022-11-25T02:08:40.680Z,5.29
2022-11-25T02:09:40.665Z,5.28
2022-11-25T02:10:40.703Z,5.26
2022-11-25T02:11:40.644Z,5.28
2022-11-25T02:12:40.623Z,5.30
2022-11-25T02:13:40.650Z,5.25
2022-11-25T02:14:40.601Z,5.28
2022-11-25T02:15:40.604Z,5.33
2022-11-25T02:16:40.643Z,5.30
2022-11-25T02:17:40.606Z,5.23
2022-11-25T02:18:40.582Z,5.23
2022-11-25T02:19:40.605Z,5.28
2022-11-25T02:20:40.538Z,5.20
2022-11-25T02:21:40.531Z,5.15
2022-11-25T02:22:40.521Z,5.18
2022-11-25T02:23:40.530Z,5.18
2022-11-25T02:24:40.502Z,5.11
2022-11-25T02:25:40.520Z,5.11
2022-11-25T02:26:40.499Z,5.04
2022-11-25T02:27:40.469Z,5.07
2022-11-25T02:28:40.457Z,5.04
2022-11-25T02:29:40.448Z,4.97
2022-11-25T02:30:40.567Z,5.00
2022-11-25T02:31:40.490Z,5.04
2022-11-25T02:32:40.412Z,5.07
2022-11-25T02:33:40.441Z,5.08
2022-11-25T02:34:40.393Z,5.11
2022-11-25T02:35:40.378Z,4.99
2022-11-25T02:36:40.372Z,5.04
2022-11-25T02:37:40.389Z,5.02
2022-11-25T02:38:40.347Z,5.07
2022-11-25T02:39:40.334Z,5.00
2022-11-25T02:40:40.322Z,4.97
2022-11-25T02:41:40.312Z,4.96
2022-11-25T02:42:40.354Z,5.00
2022-11-25T02:43:40.328Z,4.90
2022-11-25T02:44:40.281Z,4.93
2022-11-25T02:45:40.359Z,4.92
2022-11-25T02:46:40.259Z,4.90
2022-11-25T02:47:40.237Z,4.87
2022-11-25T02:49:07.355Z,4.80
2022-11-25T02:49:41.281Z,4.75
2022-11-25T02:50:40.227Z,4.73
2022-11-25T02:51:40.213Z,4.82
2022-11-25T02:52:40.188Z,4.74
2022-11-25T02:53:40.183Z,4.71
2022-11-25T02:54:40.163Z,4.67
2022-11-25T02:55:40.285Z,4.68
2022-11-25T02:56:40.147Z,4.70
2022-11-25T02:57:40.151Z,4.71
2022-11-25T02:58:40.128Z,4.67
2022-11-25T02:59:40.129Z,4.67
2022-11-25T03:00:40.169Z,4.60
2022-11-25T03:01:40.241Z,4.63
2022-11-25T03:02:40.147Z,4.59
2022-11-25T03:03:40.071Z,4.63
2022-11-25T03:04:40.056Z,4.56
2022-11-25T03:05:40.073Z,4.56
2022-11-25T03:06:40.032Z,4.60
2022-11-25T03:07:40.134Z,4.63
2022-11-25T03:08:40.016Z,4.60
2022-11-25T03:09:40.007Z,4.56
2022-11-25T03:10:40.084Z,4.60
2022-11-25T03:11:39.970Z,4.58
2022-11-25T03:12:39.972Z,4.58
2022-11-25T03:13:39.986Z,4.62
2022-11-25T03:14:39.941Z,4.53
2022-11-25T03:15:39.934Z,4.66
2022-11-25T03:16:39.937Z,4.73
2022-11-25T03:17:39.918Z,4.66
2022-11-25T03:18:39.897Z,4.70
2022-11-25T03:19:39.917Z,4.62
2022-11-25T03:20:39.871Z,4.63
2022-11-25T03:21:39.890Z,4.67
2022-11-25T03:22:39.890Z,4.67
2022-11-25T03:23:39.867Z,4.62
2022-11-25T03:24:39.831Z,4.60
2022-11-25T03:25:39.863Z,4.62
2022-11-25T03:26:39.827Z,4.70
2022-11-25T03:27:39.793Z,4.73
2022-11-25T03:28:39.795Z,4.70
2022-11-25T03:29:39.772Z,4.59
2022-11-25T03:30:39.766Z,4.60
2022-11-25T03:31:39.846Z,4.62
2022-11-25T03:32:39.749Z,4.58
2022-11-25T03:33:39.731Z,4.60
2022-11-25T03:34:39.734Z,4.56
2022-11-25T03:35:39.739Z,4.60
2022-11-25T03:36:39.786Z,4.56
2022-11-25T03:37:39.758Z,4.58
2022-11-25T03:38:39.670Z,4.56
2022-11-25T03:39:39.666Z,4.55
2022-11-25T03:40:39.642Z,4.44
2022-11-25T03:41:39.647Z,4.48
2022-11-25T03:42:39.776Z,4.50
2022-11-25T03:43:39.650Z,4.45
2022-11-25T03:44:39.612Z,4.45
2022-11-25T03:45:39.609Z,4.42
2022-11-25T03:46:39.575Z,4.42
2022-11-25T03:47:39.576Z,4.44
2022-11-25T03:48:39.561Z,4.50
2022-11-25T03:49:39.618Z,4.40
2022-11-25T03:50:39.545Z,4.34
2022-11-25T03:51:39.522Z,4.37
2022-11-25T03:52:39.535Z,4.42
2022-11-25T03:53:39.527Z,4.49
2022-11-25T03:54:39.497Z,4.41
2022-11-25T03:55:39.515Z,4.35
2022-11-25T03:56:39.466Z,4.52
2022-11-25T03:57:39.468Z,4.48
2022-11-25T03:58:39.443Z,4.52
2022-11-25T03:59:39.442Z,4.49
2022-11-25T04:00:39.424Z,4.45
2022-11-25T04:01:44.007Z,4.55
2022-11-25T04:02:40.493Z,4.58
2022-11-25T04:03:39.391Z,4.56
2022-11-25T04:04:39.385Z,4.59
2022-11-25T04:05:39.392Z,4.62
2022-11-25T04:06:39.361Z,4.60
2022-11-25T04:07:39.415Z,4.56
2022-11-25T04:08:39.342Z,4.56
2022-11-25T04:09:39.357Z,4.68
2022-11-25T04:10:39.408Z,4.70
2022-11-25T04:11:39.304Z,4.73
2022-11-25T04:12:39.290Z,4.73
2022-11-25T04:13:39.311Z,4.71
2022-11-25T04:14:39.268Z,4.73
2022-11-25T04:15:39.259Z,4.82
2022-11-25T04:16:39.300Z,4.74
2022-11-25T04:17:39.233Z,4.78
2022-11-25T04:18:39.225Z,4.82
2022-11-25T04:19:39.223Z,4.75
2022-11-25T04:20:39.206Z,4.75
2022-11-25T04:21:39.192Z,4.77
2022-11-25T04:22:39.182Z,4.84
2022-11-25T04:23:39.232Z,4.80
2022-11-25T04:24:39.161Z,4.92
2022-11-25T04:25:39.184Z,4.87
2022-11-25T04:26:39.141Z,4.82
2022-11-25T04:27:39.121Z,4.89
2022-11-25T04:28:39.126Z,4.97
2022-11-25T04:29:39.097Z,4.96
2022-11-25T04:30:39.204Z,4.96
2022-11-25T04:31:39.105Z,4.92
2022-11-25T04:32:39.071Z,4.87
2022-11-25T04:33:39.058Z,4.90
2022-11-25T04:34:39.045Z,4.97
2022-11-25T04:35:39.032Z,4.96
2022-11-25T04:36:39.021Z,5.04
2022-11-25T04:37:39.048Z,4.97
2022-11-25T04:38:38.995Z,4.96
2022-11-25T04:39:38.993Z,5.04
2022-11-25T04:40:38.975Z,4.96
2022-11-25T04:41:38.989Z,5.00
2022-11-25T04:42:38.963Z,5.04
2022-11-25T04:43:38.997Z,5.02
2022-11-25T04:44:38.940Z,5.05
2022-11-25T04:46:06.489Z,5.11
2022-11-25T04:46:39.956Z,5.02
2022-11-25T04:47:38.902Z,4.94
2022-11-25T04:48:38.884Z,5.11
2022-11-25T04:49:38.900Z,5.04
2022-11-25T04:50:38.864Z,5.04
2022-11-25T04:51:38.854Z,5.05
2022-11-25T04:52:38.952Z,5.07
2022-11-25T04:53:38.829Z,5.08
2022-11-25T04:54:38.823Z,5.00
2022-11-25T04:55:38.874Z,4.99
2022-11-25T04:56:38.800Z,5.07
2022-11-25T04:57:38.825Z,5.02
2022-11-25T04:58:38.778Z,5.02
2022-11-25T04:59:38.765Z,5.08
2022-11-25T05:00:38.758Z,5.12
2022-11-25T05:01:38.891Z,5.10
2022-11-25T05:02:38.845Z,5.07
2022-11-25T05:03:41.405Z,5.14
2022-11-25T05:04:38.767Z,5.07
2022-11-25T05:05:38.699Z,4.96
2022-11-25T05:06:38.707Z,5.02
2022-11-25T05:07:38.862Z,5.02
2022-11-25T05:08:38.672Z,5.07
2022-11-25T05:09:38.655Z,5.14
2022-11-25T05:10:38.655Z,4.96
2022-11-25T05:11:38.629Z,4.99
2022-11-25T05:12:38.627Z,5.00
2022-11-25T05:13:38.706Z,5.00
2022-11-25T05:14:38.721Z,5.04
2022-11-25T05:15:38.619Z,5.05
2022-11-25T05:16:38.653Z,4.94
2022-11-25T05:17:38.577Z,5.05
2022-11-25T05:18:38.619Z,5.02
2022-11-25T05:19:38.584Z,5.11
2022-11-25T05:20:38.529Z,5.10
2022-11-25T05:21:38.518Z,5.07
2022-11-25T05:22:38.514Z,5.05
2022-11-25T05:23:38.500Z,5.07
2022-11-25T05:24:38.541Z,5.10
2022-11-25T05:25:38.507Z,5.10
2022-11-25T05:26:38.467Z,5.04
2022-11-25T05:27:38.450Z,4.93
2022-11-25T05:28:38.439Z,5.05
2022-11-25T05:29:38.454Z,4.97
2022-11-25T05:30:38.461Z,4.92
2022-11-25T05:31:38.472Z,5.11
2022-11-25T05:32:38.403Z,4.97
2022-11-25T05:33:38.412Z,4.97
2022-11-25T05:34:38.755Z,5.04
2022-11-25T05:35:38.367Z,5.00
2022-11-25T05:36:45.354Z,5.08
2022-11-25T05:37:46.011Z,5.08
2022-11-25T05:38:46.050Z,5.05
2022-11-25T05:39:45.313Z,4.99
2022-11-25T05:40:45.295Z,4.93
2022-11-25T05:41:38.298Z,4.92
2022-11-25T05:42:38.327Z,4.93
2022-11-25T05:43:38.272Z,4.87
2022-11-25T05:44:38.495Z,4.86
2022-11-25T05:45:38.318Z,4.97
2022-11-25T05:46:38.240Z,4.96
2022-11-25T05:47:38.235Z,4.97
2022-11-25T05:48:38.262Z,4.99
2022-11-25T05:49:38.211Z,4.99
2022-11-25T05:50:38.196Z,5.02
2022-11-25T05:51:39.131Z,5.07
2022-11-25T05:52:38.190Z,4.96
2022-11-25T05:53:38.166Z,5.05
2022-11-25T05:54:38.712Z,5.00
2022-11-25T05:55:38.136Z,5.07
2022-11-25T05:56:38.123Z,5.02
2022-11-25T05:57:38.119Z,5.11
2022-11-25T05:58:38.108Z,5.05
2022-11-25T05:59:38.102Z,5.10
2022-11-25T06:00:38.114Z,5.05
2022-11-25T06:01:38.159Z,5.10
2022-11-25T06:02:38.155Z,5.11
2022-11-25T06:03:38.080Z,5.12
2022-11-25T06:04:38.363Z,5.04
2022-11-25T06:05:38.028Z,5.08
2022-11-25T06:06:38.052Z,5.08
2022-11-25T06:07:38.100Z,5.21
2022-11-25T06:08:37.996Z,5.15
2022-11-25T06:09:37.987Z,5.20
2022-11-25T06:10:37.970Z,5.15
2022-11-25T06:11:37.966Z,5.18
2022-11-25T06:12:37.986Z,5.20
2022-11-25T06:13:37.945Z,5.18
2022-11-25T06:14:38.282Z,5.21
2022-11-25T06:15:37.955Z,5.23
2022-11-25T06:16:37.908Z,5.23
2022-11-25T06:17:37.921Z,5.23
2022-11-25T06:18:37.907Z,5.18
2022-11-25T06:19:37.907Z,5.28
2022-11-25T06:20:37.869Z,5.25
2022-11-25T06:21:37.859Z,5.21
2022-11-25T06:22:37.841Z,5.23
2022-11-25T06:23:37.834Z,5.32
2022-11-25T06:24:38.186Z,5.28
2022-11-25T06:25:37.823Z,5.21
2022-11-25T06:26:37.804Z,5.26
2022-11-25T06:28:04.489Z,5.29
2022-11-25T06:28:38.785Z,5.28
2022-11-25T06:44:33.259Z,4.62
2022-11-25T06:45:33.055Z,4.56
2022-11-25T06:46:33.083Z,4.62
2022-11-25T06:47:33.039Z,4.68
2022-11-25T06:48:33.034Z,4.74
2022-11-25T06:49:33.017Z,4.84
2022-11-25T06:50:33.019Z,4.94
2022-11-25T06:51:34.173Z,5.10
2022-11-25T06:52:33.006Z,5.07
2022-11-25T06:53:33.036Z,5.17
2022-11-25T06:54:33.019Z,5.18
2022-11-25T06:55:32.987Z,5.20
2022-11-25T06:56:32.967Z,5.26
2022-11-25T06:57:32.988Z,5.26
2022-11-25T06:58:36.682Z,5.33
2022-11-25T06:59:32.905Z,5.39
2022-11-25T07:00:32.944Z,5.41
2022-11-25T07:01:33.697Z,5.39
2022-11-25T07:02:39.789Z,5.44
2022-11-25T07:03:33.856Z,5.43
2022-11-25T07:04:32.936Z,5.46
2022-11-25T07:05:32.856Z,5.56
2022-11-25T07:06:32.822Z,5.54
2022-11-25T07:07:32.821Z,5.51
2022-11-25T07:08:34.335Z,5.65
2022-11-25T07:09:32.791Z,5.69
2022-11-25T07:10:32.792Z,5.66
2022-11-25T07:11:32.770Z,5.76
2022-11-25T07:12:32.756Z,5.68
2022-11-25T07:13:32.739Z,5.71
2022-11-25T07:14:32.789Z,5.66
2022-11-25T07:15:32.782Z,5.72
2022-11-25T07:16:32.745Z,5.75
2022-11-25T07:17:32.712Z,5.72
2022-11-25T07:18:32.690Z,5.82
2022-11-25T07:19:32.679Z,5.73
2022-11-25T07:20:32.696Z,5.82
2022-11-25T07:21:32.657Z,5.73
2022-11-25T07:22:32.638Z,5.83
2022-11-25T07:23:32.636Z,5.80
2022-11-25T07:24:32.646Z,5.79
2022-11-25T07:25:32.608Z,5.86
2022-11-25T07:26:32.634Z,5.83
2022-11-25T07:27:32.600Z,5.75
2022-11-25T07:28:32.576Z,5.83
2022-11-25T07:31:34.447Z,5.91
2022-11-25T07:32:32.555Z,5.86
2022-11-25T07:33:32.599Z,5.89
2022-11-25T07:34:32.513Z,5.94
2022-11-25T07:35:32.505Z,5.97
2022-11-25T07:36:32.492Z,5.97
2022-11-25T07:37:32.498Z,5.97
2022-11-25T07:38:32.462Z,6.02
2022-11-25T07:39:32.470Z,6.07
2022-11-25T07:40:32.449Z,6.07
2022-11-25T07:41:32.459Z,6.14
2022-11-25T07:42:32.426Z,6.22
2022-11-25T07:43:32.420Z,6.19
2022-11-25T07:44:32.394Z,6.22
2022-11-25T07:45:32.405Z,6.24
2022-11-25T07:46:32.421Z,6.26
2022-11-25T07:47:32.356Z,6.35
2022-11-25T07:48:32.374Z,6.36
2022-11-25T07:49:32.378Z,6.30
2022-11-25T07:50:32.416Z,6.33
2022-11-25T07:51:32.314Z,6.38
2022-11-25T07:52:32.297Z,6.28
2022-11-25T07:53:32.332Z,6.38
2022-11-25T07:54:32.355Z,6.44
2022-11-25T07:55:32.281Z,6.38
2022-11-25T07:56:32.390Z,6.44
2022-11-25T07:57:32.367Z,6.42
2022-11-25T07:58:32.234Z,6.48
2022-11-25T07:59:32.224Z,6.52
2022-11-25T08:00:32.214Z,6.48
2022-11-25T08:01:32.312Z,6.56
2022-11-25T08:02:32.256Z,6.52
2022-11-25T08:03:32.179Z,6.57
2022-11-25T08:04:32.209Z,6.57
2022-11-25T08:05:32.151Z,6.70
2022-11-25T08:06:32.150Z,6.78
2022-11-25T08:07:36.427Z,6.81
2022-11-25T08:08:32.127Z,6.81
2022-11-25T08:09:32.111Z,7.02
2022-11-25T08:10:32.100Z,6.99
2022-11-25T08:11:32.092Z,6.99
2022-11-25T08:12:32.075Z,6.95
2022-11-25T08:13:32.246Z,6.95
2022-11-25T08:14:32.054Z,6.97
2022-11-25T08:15:32.130Z,7.02
2022-11-25T08:16:32.124Z,7.02
2022-11-25T08:17:32.019Z,6.97
2022-11-25T08:18:32.014Z,6.89
2022-11-25T08:19:32.011Z,6.96
2022-11-25T08:20:32.020Z,6.92
2022-11-25T08:21:31.972Z,6.87
2022-11-25T08:22:31.966Z,6.99
2022-11-25T08:23:31.954Z,6.92
2022-11-25T08:24:31.937Z,6.97
2022-11-25T08:25:31.945Z,7.00
2022-11-25T08:26:31.919Z,7.02
2022-11-25T08:27:31.944Z,6.95
2022-11-25T08:28:31.893Z,6.97
2022-11-25T08:29:31.884Z,6.95
2022-11-25T08:30:31.892Z,7.07
2022-11-25T08:31:31.998Z,7.07
2022-11-25T08:32:31.854Z,7.05
2022-11-25T08:33:31.853Z,7.11
2022-11-25T08:34:31.827Z,7.14
2022-11-25T08:35:31.818Z,7.18
2022-11-25T08:36:31.845Z,7.17
2022-11-25T08:37:31.810Z,7.10
2022-11-25T08:38:31.809Z,7.15
2022-11-25T08:40:01.933Z,7.25
2022-11-25T08:40:32.764Z,7.25
2022-11-25T08:41:31.754Z,7.29
2022-11-25T08:42:31.735Z,7.38
2022-11-25T08:43:31.743Z,7.25
2022-11-25T08:44:31.718Z,7.35
2022-11-25T08:45:31.705Z,7.35
2022-11-25T08:46:31.725Z,7.40
2022-11-25T08:47:31.678Z,7.48
2022-11-25T08:48:31.695Z,7.42
2022-11-25T08:49:34.984Z,7.36
2022-11-25T08:50:32.646Z,7.36
2022-11-25T08:51:31.637Z,7.48
2022-11-25T08:52:31.643Z,7.48
2022-11-25T08:53:31.616Z,7.39
2022-11-25T08:54:31.606Z,7.36
2022-11-25T08:55:31.652Z,7.43
2022-11-25T08:56:31.676Z,7.43
2022-11-25T08:57:31.566Z,7.53
2022-11-25T08:58:31.559Z,7.54
2022-11-25T08:59:31.552Z,7.54
2022-11-25T09:00:31.553Z,7.69
2022-11-25T09:01:31.593Z,7.66
2022-11-25T09:02:31.593Z,7.63
2022-11-25T09:03:31.564Z,7.75
2022-11-25T09:04:31.510Z,7.70
2022-11-25T09:05:31.475Z,7.73
2022-11-25T09:06:31.465Z,7.76
2022-11-25T09:07:31.567Z,7.73
2022-11-25T09:08:31.473Z,7.80
2022-11-25T09:09:31.432Z,7.75
2022-11-25T09:10:31.422Z,7.76
2022-11-25T09:11:31.483Z,7.85
2022-11-25T09:12:31.422Z,7.91
2022-11-25T09:13:31.564Z,7.83
2022-11-25T09:14:31.377Z,7.93
2022-11-25T09:15:31.798Z,7.88
2022-11-25T09:16:31.398Z,7.93
2022-11-25T09:17:31.337Z,7.87
2022-11-25T09:18:31.336Z,7.93
2022-11-25T09:19:31.338Z,7.90
2022-11-25T09:20:31.345Z,8.09
2022-11-25T09:21:31.323Z,8.03
2022-11-25T09:22:31.286Z,8.00
2022-11-25T09:23:31.285Z,8.12
2022-11-25T09:24:31.339Z,8.08
2022-11-25T09:25:31.294Z,8.13
2022-11-25T09:26:31.245Z,8.10
2022-11-25T09:27:31.232Z,8.24
2022-11-25T09:28:31.219Z,8.10
2022-11-25T09:29:31.226Z,8.19
2022-11-25T09:30:31.199Z,8.23
2022-11-25T09:31:31.350Z,8.19
2022-11-25T09:32:31.176Z,8.34
2022-11-25T09:33:31.161Z,8.33
2022-11-25T09:34:31.149Z,8.31
2022-11-25T09:35:31.213Z,8.31
2022-11-25T09:36:31.125Z,8.33
2022-11-25T09:37:31.151Z,8.36
2022-11-25T09:38:31.100Z,8.41
2022-11-25T09:39:31.139Z,8.33
2022-11-25T09:40:31.120Z,8.42
2022-11-25T09:41:31.095Z,8.44
2022-11-25T09:42:31.064Z,8.45
2022-11-25T09:43:31.072Z,8.49
2022-11-25T09:44:31.035Z,8.36
2022-11-25T09:45:31.031Z,8.46
2022-11-25T09:46:31.055Z,8.55
2022-11-25T09:47:31.017Z,8.52
2022-11-25T09:48:30.997Z,8.53
2022-11-25T09:49:31.014Z,8.53
2022-11-25T09:50:30.974Z,8.52
2022-11-25T09:51:30.980Z,8.61
2022-11-25T09:52:30.953Z,8.63
2022-11-25T09:53:30.961Z,8.70
2022-11-25T09:54:30.922Z,8.64
2022-11-25T09:55:30.930Z,8.81
2022-11-25T09:56:30.924Z,8.73
2022-11-25T09:57:30.905Z,8.81
2022-11-25T09:58:30.878Z,8.87
2022-11-25T09:59:30.925Z,8.84
2022-11-25T10:00:30.854Z,8.88
2022-11-25T10:01:30.877Z,8.85
2022-11-25T10:02:31.203Z,8.92
2022-11-25T10:03:30.898Z,8.91
2022-11-25T10:04:30.808Z,8.91
2022-11-25T10:05:30.799Z,8.94
2022-11-25T10:06:30.912Z,8.85
2022-11-25T10:07:30.814Z,9.02
2022-11-25T10:08:30.769Z,8.94
2022-11-25T10:09:30.751Z,8.92
2022-11-25T10:10:30.745Z,8.92
2022-11-25T10:11:30.735Z,8.91
2022-11-25T10:12:30.742Z,8.97
2022-11-25T10:13:30.790Z,9.02
2022-11-25T10:14:30.713Z,8.95
2022-11-25T10:15:30.718Z,9.00
2022-11-25T10:16:30.796Z,9.03
2022-11-25T10:17:30.652Z,9.04
2022-11-25T10:18:30.652Z,9.02
2022-11-25T10:19:30.659Z,9.14
2022-11-25T10:20:30.632Z,9.10
2022-11-25T10:21:30.616Z,9.22
2022-11-25T10:22:30.623Z,9.21
2022-11-25T10:23:30.587Z,9.21
2022-11-25T10:24:30.573Z,9.21
2022-11-25T10:25:30.595Z,9.23
2022-11-25T10:26:30.552Z,9.22
2022-11-25T10:27:30.553Z,9.26
2022-11-25T10:28:30.599Z,9.25
2022-11-25T10:29:30.526Z,9.23
2022-11-25T10:30:30.524Z,9.25
2022-11-25T10:31:30.541Z,9.23
2022-11-25T10:32:30.504Z,9.21
2022-11-25T10:33:30.472Z,9.22
2022-11-25T10:34:31.219Z,9.21
2022-11-25T10:35:30.459Z,9.25
2022-11-25T10:36:30.467Z,9.21
2022-11-25T10:37:30.501Z,9.25
2022-11-25T10:38:30.461Z,9.19
2022-11-25T10:39:30.409Z,9.22
2022-11-25T10:40:30.494Z,9.13
2022-11-25T10:41:30.396Z,9.21
2022-11-25T10:42:30.376Z,9.25
2022-11-25T10:43:31.993Z,9.18
2022-11-25T10:44:30.377Z,9.08
2022-11-25T10:45:30.336Z,9.08
2022-11-25T10:46:49.603Z,9.19
2022-11-25T10:47:31.377Z,9.10
2022-11-25T10:48:30.302Z,9.08
2022-11-25T10:49:30.324Z,9.14
2022-11-25T10:50:30.600Z,9.11
2022-11-25T10:51:30.270Z,9.14
2022-11-25T10:52:30.273Z,9.10
2022-11-25T10:53:30.256Z,9.04
2022-11-25T10:54:30.237Z,9.06
2022-11-25T10:55:30.234Z,9.03
2022-11-25T10:56:30.212Z,9.02
2022-11-25T10:57:30.198Z,9.02
2022-11-25T10:58:30.189Z,9.00
2022-11-25T10:59:30.184Z,8.95
2022-11-25T11:00:30.219Z,9.08
2022-11-25T11:01:30.230Z,9.03
2022-11-25T11:02:30.214Z,9.03
2022-11-25T11:03:30.156Z,9.00
2022-11-25T11:04:30.118Z,9.02
2022-11-25T11:05:30.161Z,8.99
2022-11-25T11:06:30.090Z,8.95
2022-11-25T11:07:30.207Z,8.95
2022-11-25T11:08:30.081Z,8.88
2022-11-25T11:09:30.083Z,8.91
2022-11-25T11:10:30.060Z,8.89
2022-11-25T11:11:30.041Z,8.88
2022-11-25T11:12:30.031Z,8.89
2022-11-25T11:13:30.046Z,8.92
2022-11-25T11:14:30.023Z,8.87
2022-11-25T11:15:29.999Z,8.85
2022-11-25T11:16:30.173Z,8.92
2022-11-25T11:17:34.843Z,8.91
2022-11-25T11:18:30.987Z,8.89
2022-11-25T11:19:29.954Z,8.88
2022-11-25T11:20:29.947Z,8.89
2022-11-25T11:21:29.924Z,8.84
2022-11-25T11:22:29.980Z,8.74
2022-11-25T11:23:29.900Z,8.79
2022-11-25T11:24:30.005Z,8.81
2022-11-25T11:25:29.874Z,8.85
2022-11-25T11:26:29.883Z,8.82
2022-11-25T11:27:29.852Z,8.81
2022-11-25T11:28:29.843Z,8.79
2022-11-25T11:29:29.854Z,8.79
2022-11-25T11:30:29.859Z,8.78
2022-11-25T11:31:29.892Z,8.76
2022-11-25T11:32:29.820Z,8.64
2022-11-25T11:33:29.785Z,8.76
2022-11-25T11:34:29.797Z,8.71
2022-11-25T11:35:29.759Z,8.66
2022-11-25T11:36:29.773Z,8.70
2022-11-25T11:37:29.742Z,8.76
2022-11-25T11:38:29.734Z,8.67
2022-11-25T11:39:29.898Z,8.58
2022-11-25T11:40:29.705Z,8.64
2022-11-25T11:41:29.697Z,8.64
2022-11-25T11:42:29.707Z,8.66
2022-11-25T11:43:29.704Z,8.70
2022-11-25T11:44:29.659Z,8.70
2022-11-25T11:45:29.653Z,8.66
2022-11-25T11:46:29.679Z,8.63
2022-11-25T11:47:29.630Z,8.70
2022-11-25T11:48:29.663Z,8.64
2022-11-25T11:49:30.824Z,8.64
2022-11-25T11:50:29.595Z,8.64
2022-11-25T11:51:29.595Z,8.66
2022-11-25T11:52:29.574Z,8.70
2022-11-25T11:53:29.555Z,8.67
2022-11-25T11:54:29.667Z,8.63
2022-11-25T11:55:29.535Z,8.63
2022-11-25T11:56:36.762Z,8.64
2022-11-25T11:57:30.519Z,8.70
2022-11-25T11:58:29.496Z,8.69
2022-11-25T11:59:29.478Z,8.71
2022-11-25T12:00:30.279Z,8.73
2022-11-25T12:01:29.463Z,8.63
2022-11-25T12:02:29.575Z,8.67
2022-11-25T12:03:29.527Z,8.61
2022-11-25T12:04:29.450Z,8.58
2022-11-25T12:05:29.448Z,8.78
2022-11-25T12:06:29.470Z,8.60
2022-11-25T12:07:29.475Z,8.67
2022-11-25T12:08:29.379Z,8.64
2022-11-25T12:09:29.385Z,8.74
2022-11-25T12:10:29.366Z,8.79
2022-11-25T12:11:29.351Z,8.63
2022-11-25T12:12:29.365Z,8.61
2022-11-25T12:13:29.322Z,8.67
2022-11-25T12:14:29.316Z,8.78
2022-11-25T12:15:29.311Z,8.76
2022-11-25T12:16:29.390Z,8.73
2022-11-25T12:17:29.308Z,8.61
2022-11-25T12:18:29.294Z,8.58
2022-11-25T12:19:29.254Z,8.76
2022-11-25T12:20:29.379Z,8.63
2022-11-25T12:21:29.236Z,8.64
2022-11-25T12:22:29.212Z,8.73
2022-11-25T12:23:29.208Z,8.74
2022-11-25T12:24:29.227Z,8.64
2022-11-25T12:25:29.204Z,8.78
2022-11-25T12:26:29.175Z,8.73
2022-11-25T12:27:29.239Z,8.66
2022-11-25T12:28:29.149Z,8.66
2022-11-25T12:29:29.204Z,8.69
2022-11-25T12:30:29.161Z,8.71
2022-11-25T12:31:29.222Z,8.64
2022-11-25T12:32:29.114Z,8.74
2022-11-25T12:33:29.100Z,8.71
2022-11-25T12:34:29.087Z,8.76
2022-11-25T12:35:29.093Z,8.81
2022-11-25T12:36:29.132Z,8.81
2022-11-25T12:37:29.057Z,8.85
2022-11-25T12:38:29.066Z,8.70
2022-11-25T12:39:29.022Z,8.74
2022-11-25T12:40:29.014Z,8.76
2022-11-25T12:41:28.999Z,8.78
2022-11-25T12:42:29.132Z,8.73
2022-11-25T12:43:29.003Z,8.64
2022-11-25T12:44:28.967Z,8.70
2022-11-25T12:45:36.835Z,8.69
2022-11-25T12:46:28.948Z,8.64
2022-11-25T12:47:28.935Z,8.66
2022-11-25T12:48:35.931Z,8.79
2022-11-25T12:49:28.916Z,8.71
2022-11-25T12:50:28.908Z,8.63
2022-11-25T12:51:28.889Z,8.70
2022-11-25T12:52:28.906Z,8.67
2022-11-25T12:53:28.873Z,8.66
2022-11-25T12:54:28.899Z,8.53
2022-11-25T12:55:28.855Z,8.63
2022-11-25T12:56:28.832Z,8.64
2022-11-25T12:57:28.813Z,8.66
2022-11-25T12:58:28.859Z,8.64
2022-11-25T12:59:28.796Z,8.58
2022-11-25T13:00:44.241Z,8.51
2022-11-25T13:01:29.838Z,8.53
2022-11-25T13:02:28.861Z,8.51
2022-11-25T13:03:28.844Z,8.51
2022-11-25T13:04:28.729Z,8.51
2022-11-25T13:05:43.938Z,8.53
2022-11-25T13:06:29.743Z,8.55
2022-11-25T13:07:28.795Z,8.56
2022-11-25T13:08:28.728Z,8.51
2022-11-25T13:09:28.679Z,8.51
2022-11-25T13:10:28.677Z,8.53
2022-11-25T13:11:29.101Z,8.55
2022-11-25T13:12:29.044Z,8.51
2022-11-25T13:13:29.074Z,8.53
2022-11-25T13:14:29.160Z,8.51
2022-11-25T13:15:29.014Z,8.55
2022-11-25T13:16:29.195Z,8.51
2022-11-25T13:17:28.757Z,8.53
2022-11-25T13:18:28.632Z,8.55
2022-11-25T13:19:28.557Z,8.66
2022-11-25T13:20:28.560Z,8.55
2022-11-25T13:21:28.541Z,8.63
2022-11-25T13:22:28.555Z,8.58
2022-11-25T13:23:28.520Z,8.60
2022-11-25T13:24:28.559Z,8.55
2022-11-25T13:25:28.547Z,8.58
2022-11-25T13:26:28.481Z,8.53
2022-11-25T13:27:28.473Z,8.63
2022-11-25T13:28:28.462Z,8.51
2022-11-25T13:29:28.455Z,8.55
2022-11-25T13:30:28.454Z,8.55
2022-11-25T13:31:28.460Z,8.56
2022-11-25T13:32:28.414Z,8.56
2022-11-25T13:33:28.406Z,8.52
2022-11-25T13:34:28.407Z,8.52
2022-11-25T13:35:28.384Z,8.49